Time;durP1;ratioP1;P1;durP2;ratioP2;P2;SDS_P1;SDS_P2;PMS_P1;PMS_P2;Temp;Humidity;BMP_temperature;BMP_pressure;BME280_temperature;BME280_humidity;BME280_pressure;Samples;Min_cycle;Max_cycle;Signal;HPM_P1;HPM_P2
2021/12/14 00:01:56;;;;;;;62.90;27.23;;;;;;;6.43;100.00;102138.66;7401530;19;20618;-67
2021/12/14 00:04:31;;;;;;;61.60;26.08;;;;;;;6.43;100.00;102145.59;7398281;19;20018;-67
2021/12/14 00:07:03;;;;;;;66.28;27.17;;;;;;;6.42;100.00;102134.28;7398344;19;20426;-67
2021/12/14 00:09:36;;;;;;;64.88;28.00;;;;;;;6.42;100.00;102134.28;7401241;19;20026;-67
2021/12/14 00:12:20;;;;;;;62.65;27.23;;;;;;;6.42;100.00;102133.38;7398469;19;20018;-67
2021/12/14 00:15:06;;;;;;;65.63;27.80;;;;;;;6.41;100.00;102134.25;7398713;19;20430;-67
2021/12/14 00:17:42;;;;;;;69.63;29.13;;;;;;;6.40;100.00;102133.38;7400134;19;20479;-67
2021/12/14 00:20:19;;;;;;;64.30;27.75;;;;;;;6.40;100.00;102132.50;7400835;19;20036;-67
2021/12/14 00:25:35;;;;;;;61.92;25.73;;;;;;;6.38;100.00;102140.28;7398005;19;20039;-67
2021/12/14 00:28:07;;;;;;;58.08;26.58;;;;;;;6.40;100.00;102145.53;7400830;19;20019;-67
2021/12/14 00:30:36;;;;;;;59.92;25.77;;;;;;;6.39;100.00;102138.56;7398442;19;20019;-67
2021/12/14 00:33:05;;;;;;;59.45;26.02;;;;;;;6.38;100.00;102139.41;7397511;19;20014;-67
2021/12/14 00:35:34;;;;;;;61.17;28.88;;;;;;;6.38;100.00;102149.84;7397576;19;20027;-66
2021/12/14 00:38:02;;;;;;;57.85;26.65;;;;;;;6.36;100.00;102140.25;7399926;19;20034;-67
2021/12/14 00:40:41;;;;;;;56.60;26.42;;;;;;;6.37;100.00;102141.16;7399692;19;20018;-67
2021/12/14 00:43:10;;;;;;;61.47;26.92;;;;;;;6.36;100.00;102139.38;7397776;19;20509;-67
2021/12/14 00:45:43;;;;;;;62.35;28.88;;;;;;;6.36;100.00;102137.66;7396794;19;20365;-67
2021/12/14 00:48:12;;;;;;;60.20;28.00;;;;;;;6.35;100.00;102143.72;7397583;19;20015;-67
2021/12/14 00:50:43;;;;;;;60.75;27.58;;;;;;;6.36;100.00;102140.25;7399109;19;20376;-67
2021/12/14 00:53:12;;;;;;;58.25;27.10;;;;;;;6.35;100.00;102141.09;7398075;19;20014;-67
2021/12/14 00:55:47;;;;;;;56.63;26.25;;;;;;;6.35;100.00;102141.09;7397289;19;20018;-67
2021/12/14 00:58:17;;;;;;;55.08;25.10;;;;;;;6.34;100.00;102130.66;7399568;19;20025;-67
2021/12/14 01:00:49;;;;;;;53.35;26.02;;;;;;;6.34;100.00;102136.75;7394778;19;20508;-67
2021/12/14 01:03:18;;;;;;;57.83;27.30;;;;;;;6.35;100.00;102141.09;7397277;19;20107;-67
2021/12/14 01:05:50;;;;;;;54.25;25.55;;;;;;;6.34;100.00;102141.97;7396751;19;20019;-68
2021/12/14 01:08:22;;;;;;;57.13;25.65;;;;;;;6.33;100.00;102137.59;7396710;19;20401;-67
2021/12/14 01:11:00;;;;;;;60.50;27.00;;;;;;;6.33;100.00;102145.44;7397138;19;20032;-67
2021/12/14 01:13:31;;;;;;;54.65;25.67;;;;;;;6.33;100.00;102141.91;7396766;19;20081;-67
2021/12/14 01:16:14;;;;;;;53.28;25.45;;;;;;;6.31;100.00;102144.50;7396928;19;20022;-67
2021/12/14 01:18:49;;;;;;;58.50;26.83;;;;;;;6.32;100.00;102146.28;7398952;19;20021;-67
2021/12/14 01:21:43;;;;;;;56.40;25.08;;;;;;;6.33;100.00;102149.75;7395956;19;20508;-67
2021/12/14 01:24:23;;;;;;;61.03;26.97;;;;;;;6.31;100.00;102141.03;7397742;19;20014;-68
2021/12/14 01:26:54;;;;;;;48.28;25.40;;;;;;;6.29;100.00;102143.63;7396637;19;20044;-67
2021/12/14 01:29:22;;;;;;;53.53;27.00;;;;;;;6.29;100.00;102133.19;7398503;19;20025;-67
2021/12/14 01:31:55;;;;;;;59.63;26.42;;;;;;;6.28;100.00;102140.97;7397853;19;20018;-66
2021/12/14 01:34:24;;;;;;;54.10;25.92;;;;;;;6.27;100.00;102144.41;7395803;19;20378;-67
2021/12/14 01:36:56;;;;;;;54.15;26.27;;;;;;;6.27;100.00;102142.69;7398320;19;20048;-67
2021/12/14 01:39:47;;;;;;;47.90;25.73;;;;;;;6.26;100.00;102130.50;7397944;19;20035;-67
2021/12/14 01:42:22;;;;;;;48.50;24.48;;;;;;;6.26;100.00;102140.06;7398160;19;20018;-67
2021/12/14 01:44:51;;;;;;;;;;;;;;;6.25;100.00;102136.56;7396766;19;20023;-67
2021/12/14 01:47:23;;;;;;;54.13;24.25;;;;;;;6.23;100.00;102130.47;7395677;19;19927;-67
2021/12/14 01:49:52;;;;;;;51.08;24.73;;;;;;;6.22;100.00;102122.59;7397567;19;20027;-67
2021/12/14 01:52:23;;;;;;;49.40;24.77;;;;;;;6.20;100.00;102114.75;7396917;19;20022;-67
2021/12/14 01:54:54;;;;;;;52.42;26.17;;;;;;;6.20;100.00;102122.59;7395497;19;20035;-67
2021/12/14 01:57:29;;;;;;;56.22;25.25;;;;;;;6.20;100.00;102114.75;7396308;19;20487;-67
2021/12/14 01:59:58;;;;;;;49.38;23.75;;;;;;;6.19;100.00;102115.59;7396271;19;20011;-67
2021/12/14 02:02:34;;;;;;;48.03;24.45;;;;;;;6.19;100.00;102119.09;7397872;19;20018;-67
2021/12/14 02:05:10;;;;;;;51.30;24.92;;;;;;;6.19;100.00;102113.00;7395806;19;20015;-67
2021/12/14 02:07:39;;;;;;;51.22;26.15;;;;;;;6.20;100.00;102114.75;7397243;19;20018;-67
2021/12/14 02:10:11;;;;;;;47.35;24.55;;;;;;;6.18;100.00;102109.53;7396419;19;20511;-67
2021/12/14 02:12:45;;;;;;;47.92;23.98;;;;;;;6.18;100.00;102113.88;7396320;19;20349;-67
2021/12/14 02:15:17;;;;;;;51.72;25.00;;;;;;;6.13;100.00;102107.66;7395373;19;20022;-67
2021/12/14 02:17:46;;;;;;;49.13;24.98;;;;;;;6.16;100.00;102118.16;7395168;19;20023;-67
2021/12/14 02:20:18;;;;;;;53.55;24.77;;;;;;;6.17;100.00;102117.31;7394679;19;20022;-67
2021/12/14 02:22:50;;;;;;;56.00;25.38;;;;;;;6.16;100.00;102115.56;7396696;19;20019;-67
2021/12/14 02:25:20;;;;;;;54.35;24.95;;;;;;;6.15;100.00;102113.81;7394629;19;20036;-67
2021/12/14 02:27:50;;;;;;;50.55;24.40;;;;;;;6.15;100.00;102112.06;7396243;19;20031;-67
2021/12/14 02:30:22;;;;;;;48.92;25.33;;;;;;;6.16;100.00;102115.56;7395769;19;20456;-67
2021/12/14 02:32:51;;;;;;;49.70;25.42;;;;;;;6.16;100.00;102111.22;7394035;19;20366;-67
2021/12/14 02:35:27;;;;;;;49.33;25.27;;;;;;;6.14;100.00;102101.63;7394087;19;20479;-67
2021/12/14 02:38:00;;;;;;;49.42;24.60;;;;;;;6.16;100.00;102111.22;7396324;19;20023;-67
2021/12/14 02:40:53;;;;;;;52.30;25.40;;;;;;;6.15;100.00;102099.03;7396387;19;20097;-67
2021/12/14 02:43:24;;;;;;;53.20;26.55;;;;;;;6.15;100.00;102108.59;7396076;19;20037;-66
2021/12/14 02:45:54;;;;;;;53.55;25.67;;;;;;;6.14;100.00;102096.41;7396071;19;20018;-67
2021/12/14 02:48:26;;;;;;;48.03;23.92;;;;;;;6.13;100.00;102100.75;7393649;19;20484;-67
2021/12/14 02:50:54;;;;;;;49.90;24.70;;;;;;;6.14;100.00;102094.69;7395197;19;20498;-67
2021/12/14 02:53:25;;;;;;;51.17;25.60;;;;;;;6.13;100.00;102090.31;7394460;19;20027;-66
2021/12/14 02:55:53;;;;;;;48.30;24.05;;;;;;;6.13;100.00;102098.16;7395834;19;20018;-67
2021/12/14 02:58:21;;;;;;;44.92;23.60;;;;;;;6.13;100.00;102092.03;7395822;19;20142;-66
2021/12/14 03:00:53;;;;;;;51.42;25.13;;;;;;;6.14;100.00;102101.63;7393606;19;20011;-66
2021/12/14 03:03:22;;;;;;;41.95;24.33;;;;;;;6.12;100.00;102093.78;7395462;19;20015;-66
2021/12/14 03:05:52;;;;;;;46.05;22.95;;;;;;;6.12;100.00;102098.13;7395115;19;20031;-67
2021/12/14 03:08:23;;;;;;;48.20;24.85;;;;;;;6.11;100.00;102086.81;7394802;19;20481;-66
2021/12/14 03:11:10;;;;;;;53.88;26.13;;;;;;;6.10;100.00;102086.78;7393638;19;20078;-67
2021/12/14 03:13:40;;;;;;;47.75;24.98;;;;;;;6.11;100.00;102085.94;7393347;19;20018;-66
2021/12/14 03:16:13;;;;;;;48.97;24.05;;;;;;;6.10;100.00;102090.25;7393563;19;20018;-67
2021/12/14 03:18:47;;;;;;;50.88;23.38;;;;;;;6.10;100.00;102079.84;7395141;19;20023;-67
2021/12/14 03:21:18;;;;;;;;;;;;;;;6.09;100.00;102079.81;7396473;19;20083;-68
2021/12/14 03:23:50;;;;;;;50.42;24.23;;;;;;;6.09;100.00;102077.19;7399082;19;19919;-67
2021/12/14 03:26:24;;;;;;;48.40;23.58;;;;;;;6.07;100.00;102074.56;7403217;19;20483;-67
2021/12/14 03:28:57;;;;;;;46.60;24.30;;;;;;;6.04;100.00;102071.94;7400456;19;20026;-67
2021/12/14 03:31:29;;;;;;;52.47;25.30;;;;;;;6.07;100.00;102071.09;7399775;19;20019;-67
2021/12/14 03:34:03;;;;;;;46.72;24.33;;;;;;;6.07;100.00;102074.56;7398511;19;20031;-67
2021/12/14 03:36:35;;;;;;;41.92;22.98;;;;;;;6.07;100.00;102078.94;7402245;19;20044;-68
2021/12/14 03:39:10;;;;;;;45.55;24.05;;;;;;;6.07;100.00;102071.97;7401803;19;20377;-68
2021/12/14 03:41:45;;;;;;;40.28;22.38;;;;;;;6.07;100.00;102069.38;7402183;19;20011;-67
2021/12/14 03:44:15;;;;;;;43.75;22.80;;;;;;;6.06;100.00;102061.53;7400670;19;20027;-67
2021/12/14 03:46:50;;;;;;;45.33;21.65;;;;;;;6.08;100.00;102067.63;7402036;19;20040;-67
2021/12/14 03:49:20;;;;;;;45.30;22.95;;;;;;;6.09;100.00;102064.19;7398532;19;20487;-67
2021/12/14 03:51:56;;;;;;;41.33;21.05;;;;;;;6.07;100.00;102053.72;7401649;19;20026;-67
2021/12/14 03:54:24;;;;;;;41.03;21.80;;;;;;;6.08;100.00;102057.19;7398591;19;20499;-67
2021/12/14 03:56:57;;;;;;;41.03;21.10;;;;;;;6.08;100.00;102055.50;7401239;19;20031;-67
2021/12/14 03:59:28;;;;;;;39.20;20.17;;;;;;;6.08;100.00;102054.59;7397558;19;20500;-67
2021/12/14 04:01:57;;;;;;;42.53;22.02;;;;;;;6.08;100.00;102052.00;7401109;19;20018;-66
2021/12/14 04:04:28;;;;;;;41.03;21.52;;;;;;;6.09;100.00;102045.94;7397956;19;20371;-67
2021/12/14 04:06:59;;;;;;;35.95;19.70;;;;;;;6.06;100.00;102035.47;7398570;19;20071;-67
2021/12/14 04:09:30;;;;;;;39.03;20.60;;;;;;;6.06;100.00;102027.66;7400868;19;20022;-67
2021/12/14 04:12:02;;;;;;;38.75;21.70;;;;;;;6.04;100.00;102025.03;7398282;19;20019;-67
2021/12/14 04:14:31;;;;;;;37.67;21.05;;;;;;;6.01;100.00;102017.16;7398773;19;20032;-67
2021/12/14 04:17:02;;;;;;;38.05;21.13;;;;;;;5.99;100.00;102011.91;7398252;19;20044;-67
2021/12/14 04:19:31;;;;;;;39.08;20.70;;;;;;;6.02;100.00;102014.56;7400140;19;20479;-68
2021/12/14 04:22:03;;;;;;;32.33;19.30;;;;;;;6.01;100.00;102007.59;7400372;19;20015;-68
2021/12/14 04:24:34;;;;;;;34.05;20.73;;;;;;;6.02;100.00;102005.88;7398876;19;20390;-68
2021/12/14 04:27:14;;;;;;;36.65;19.70;;;;;;;6.02;100.00;101996.31;7397909;19;20018;-67
2021/12/14 04:29:42;;;;;;;40.78;21.60;;;;;;;6.02;100.00;101996.31;7400248;19;20032;-67
2021/12/14 04:32:14;;;;;;;36.08;19.83;;;;;;;6.03;100.00;101990.25;7397366;19;20022;-67
2021/12/14 04:34:43;;;;;;;39.50;21.02;;;;;;;6.02;100.00;101993.72;7394551;19;20015;-68
2021/12/14 04:37:14;;;;;;;37.17;20.23;;;;;;;6.01;100.00;101988.50;7399570;19;20366;-68
2021/12/14 04:39:47;;;;;;;39.03;19.77;;;;;;;6.00;100.00;101990.22;7400488;19;20079;-68
2021/12/14 04:53:35;;;;;;;33.55;19.42;;;;;;;5.98;100.00;101991.03;7398843;19;20022;-67
2021/12/14 04:56:07;;;;;;;39.97;20.33;;;;;;;5.96;100.00;101980.56;7397185;19;20031;-68
2021/12/14 04:58:41;;;;;;;31.70;18.92;;;;;;;5.95;100.00;101978.81;7399082;19;20026;-68
2021/12/14 05:01:18;;;;;;;34.00;20.08;;;;;;;5.94;100.00;101979.66;7395731;19;20014;-68
2021/12/14 05:03:49;;;;;;;37.45;19.60;;;;;;;5.94;100.00;101978.78;7396421;19;20070;-68
2021/12/14 05:06:21;;;;;;;35.13;19.42;;;;;;;5.94;100.00;101986.59;7396823;19;20022;-68
2021/12/14 05:11:34;;;;;;;37.53;20.10;;;;;;;5.93;100.00;101974.44;7398866;19;20367;-68
2021/12/14 05:14:10;;;;;;;35.40;19.08;;;;;;;5.93;100.00;101980.50;7397373;19;20019;-68
2021/12/14 05:16:39;;;;;;;33.95;18.90;;;;;;;5.92;100.00;101985.69;7396800;19;20018;-68
2021/12/14 05:19:11;;;;;;;34.83;18.90;;;;;;;5.92;100.00;101994.38;7397846;19;20393;-68
2021/12/14 05:21:42;;;;;;;33.35;18.33;;;;;;;5.88;100.00;101996.06;7398546;19;20014;-68
2021/12/14 05:24:14;;;;;;;33.53;18.52;;;;;;;5.92;100.00;102010.00;7397007;19;20022;-68
2021/12/14 05:26:42;;;;;;;34.00;18.40;;;;;;;5.90;100.00;102011.69;7395908;19;20014;-68
2021/12/14 05:29:14;;;;;;;31.48;18.02;;;;;;;5.92;100.00;102014.34;7397757;19;20035;-68
2021/12/14 05:31:46;;;;;;;29.02;16.58;;;;;;;5.91;100.00;102018.66;7396078;19;20014;-67
2021/12/14 05:34:15;;;;;;;29.25;17.27;;;;;;;5.91;100.00;102008.25;7395277;19;20508;-68
2021/12/14 05:36:44;;;;;;;30.52;17.02;;;;;;;5.90;100.00;102019.50;7395663;19;20087;-68
2021/12/14 05:39:32;;;;;;;30.65;17.17;;;;;;;5.88;100.00;102024.69;7397265;19;20079;-68
2021/12/14 05:44:48;;;;;;;;;;;;;;;5.88;100.00;102023.84;7396710;19;20021;-68
2021/12/14 05:47:19;;;;;;;28.95;15.73;;;;;;;5.88;100.00;102034.25;7397014;19;19922;-68
2021/12/14 05:49:50;;;;;;;28.20;14.90;;;;;;;5.85;100.00;102031.56;7397544;19;20087;-67
2021/12/14 05:52:21;;;;;;;27.23;14.70;;;;;;;5.87;100.00;102032.50;7395073;19;20029;-68
2021/12/14 05:54:49;;;;;;;23.30;14.10;;;;;;;5.87;100.00;102032.50;7394475;19;20092;-67
2021/12/14 05:57:22;;;;;;;24.40;14.45;;;;;;;5.85;100.00;102029.88;7396334;19;20130;-68
2021/12/14 05:59:54;;;;;;;25.27;13.73;;;;;;;5.80;100.00;102015.00;7395183;19;20070;-68
2021/12/14 06:02:29;;;;;;;21.85;13.25;;;;;;;5.84;100.00;102022.03;7393316;19;20011;-66
2021/12/14 06:04:58;;;;;;;21.98;12.73;;;;;;;5.83;100.00;102023.75;7395513;19;20031;-67
2021/12/14 06:07:27;;;;;;;22.48;13.65;;;;;;;5.87;100.00;102029.88;7394149;19;20077;-68
2021/12/14 06:09:55;;;;;;;24.38;13.27;;;;;;;5.87;100.00;102025.53;7395078;19;20022;-68
2021/12/14 06:12:26;;;;;;;22.77;13.80;;;;;;;5.87;100.00;102025.53;7394053;19;20015;-68
2021/12/14 06:14:59;;;;;;;22.52;13.38;;;;;;;5.87;100.00;102025.53;7393694;19;20409;-67
2021/12/14 06:17:31;;;;;;;22.88;12.95;;;;;;;5.87;100.00;102028.16;7395464;19;20014;-68
2021/12/14 06:20:02;;;;;;;25.40;15.90;;;;;;;5.87;100.00;102030.75;7393413;19;20081;-67
2021/12/14 06:22:30;;;;;;;24.77;15.93;;;;;;;5.87;100.00;102030.75;7394123;19;20404;-68
2021/12/14 06:25:01;;;;;;;22.23;12.15;;;;;;;5.88;100.00;102036.84;7392930;19;20096;-68
2021/12/14 06:27:32;;;;;;;21.17;12.43;;;;;;;5.87;100.00;102030.75;7393981;19;20022;-66
2021/12/14 06:30:06;;;;;;;20.15;12.73;;;;;;;5.89;100.00;102030.81;7395865;19;20022;-69
2021/12/14 06:32:39;;;;;;;20.65;12.05;;;;;;;5.89;100.00;102023.00;7395504;19;20022;-68
2021/12/14 06:35:12;;;;;;;22.33;11.80;;;;;;;5.85;100.00;102013.34;7394329;19;20022;-67
2021/12/14 06:38:23;;;;;;;21.55;13.18;;;;;;;5.89;100.00;102012.56;7397128;19;20015;-67
2021/12/14 06:40:56;;;;;;;20.15;12.38;;;;;;;5.87;100.00;102007.31;7393934;19;20014;-69
2021/12/14 06:43:27;;;;;;;20.17;12.40;;;;;;;5.87;100.00;102003.84;7393819;19;20074;-68
2021/12/14 06:46:02;;;;;;;22.35;12.30;;;;;;;5.87;100.00;102003.84;7394831;19;20504;-68
2021/12/14 06:48:33;;;;;;;23.88;12.25;;;;;;;5.85;100.00;101990.81;7396159;19;20010;-68
2021/12/14 06:51:07;;;;;;;21.70;12.60;;;;;;;5.85;100.00;101987.28;7393564;19;20086;-67
2021/12/14 06:53:37;;;;;;;23.40;13.07;;;;;;;5.85;100.00;101984.69;7393076;19;20022;-68
2021/12/14 06:56:10;;;;;;;22.20;11.90;;;;;;;5.85;100.00;101989.91;7395315;19;20074;-68
2021/12/14 06:58:40;;;;;;;24.33;14.40;;;;;;;5.84;100.00;101980.38;7391667;19;20416;-68
2021/12/14 07:01:14;;;;;;;32.13;18.45;;;;;;;5.84;100.00;101982.97;7393270;19;20013;-66
2021/12/14 07:03:46;;;;;;;22.10;12.55;;;;;;;5.83;100.00;101981.22;7393104;19;20078;-68
2021/12/14 07:06:24;;;;;;;22.60;13.00;;;;;;;5.83;100.00;101991.63;7394757;19;20543;-67
2021/12/14 07:08:52;;;;;;;22.08;12.38;;;;;;;5.84;100.00;101988.19;7394032;19;20061;-68
2021/12/14 07:11:22;;;;;;;22.55;13.35;;;;;;;5.82;99.76;101990.72;7394234;19;20420;-67
2021/12/14 07:13:52;;;;;;;23.33;13.05;;;;;;;5.82;99.87;101992.47;7392618;19;20022;-67
2021/12/14 07:16:30;;;;;;;18.42;12.20;;;;;;;5.81;100.00;101983.78;7394653;19;20015;-68
2021/12/14 07:19:01;;;;;;;20.42;12.50;;;;;;;5.81;100.00;101990.72;7394259;19;20478;-68
2021/12/14 07:21:38;;;;;;;20.92;12.10;;;;;;;5.81;100.00;101985.50;7394427;19;20022;-68
2021/12/14 07:24:32;;;;;;;22.27;12.13;;;;;;;5.81;100.00;101990.72;7392994;19;20022;-68
2021/12/14 07:27:33;;;;;;;21.25;12.95;;;;;;;5.79;99.75;102002.84;7392004;19;20401;-68
2021/12/14 07:30:15;;;;;;;19.75;11.95;;;;;;;5.77;99.60;102004.53;7393473;19;20022;-68
2021/12/14 07:32:53;;;;;;;22.80;13.77;;;;;;;5.77;100.00;102009.75;7393568;19;20015;-68
2021/12/14 07:35:28;;;;;;;19.90;11.40;;;;;;;5.77;100.00;102008.00;7390980;19;20551;-67
2021/12/14 07:37:59;;;;;;;23.05;13.27;;;;;;;5.74;99.93;102018.38;7393687;19;20091;-68
2021/12/14 07:40:37;;;;;;;24.52;13.30;;;;;;;5.76;100.00;102021.00;7394084;19;20130;-68
2021/12/14 07:43:16;;;;;;;21.25;12.73;;;;;;;5.76;100.00;102015.78;7394279;19;20035;-69
2021/12/14 07:45:45;;;;;;;26.00;12.77;;;;;;;5.76;100.00;102031.41;7391815;19;20019;-68
2021/12/14 07:48:16;;;;;;;20.63;11.80;;;;;;;5.76;100.00;102027.06;7391711;19;20479;-67
2021/12/14 07:50:49;;;;;;;23.88;12.82;;;;;;;5.77;100.00;102025.38;7394131;19;20029;-67
2021/12/14 07:53:32;;;;;;;24.77;13.25;;;;;;;5.73;100.00;102026.16;7394342;19;20018;-67
2021/12/14 07:56:01;;;;;;;22.33;12.50;;;;;;;5.74;100.00;102017.47;7391747;19;20090;-68
2021/12/14 07:58:35;;;;;;;24.30;14.18;;;;;;;5.74;100.00;102020.97;7391555;19;20031;-68
2021/12/14 08:01:05;;;;;;;25.67;14.85;;;;;;;5.73;100.00;102006.19;7392799;19;20018;-67
2021/12/14 08:03:38;;;;;;;21.90;11.68;;;;;;;5.74;100.00;102017.47;7391836;19;20086;-68
2021/12/14 08:06:09;;;;;;;22.50;12.13;;;;;;;5.73;100.00;102026.16;7393839;19;20035;-68
2021/12/14 08:08:45;;;;;;;25.75;13.00;;;;;;;5.76;100.00;102031.41;7392786;19;20515;-68
2021/12/14 08:11:47;;;;;;;23.33;12.77;;;;;;;5.77;100.00;102043.59;7398228;19;20019;-68
2021/12/14 08:14:19;;;;;;;21.30;11.98;;;;;;;5.77;100.00;102034.03;7398298;19;20103;-68
2021/12/14 08:16:52;;;;;;;22.90;12.55;;;;;;;5.77;100.00;102041.84;7397307;19;20023;-68
2021/12/14 08:19:33;;;;;;;19.67;11.65;;;;;;;5.79;100.00;102034.09;7397905;19;20035;-68
2021/12/14 08:22:05;;;;;;;19.83;12.18;;;;;;;5.80;100.00;102038.44;7396989;19;20511;-68
2021/12/14 08:24:33;;;;;;;19.60;12.30;;;;;;;5.81;100.00;102038.47;7398581;19;20035;-67
2021/12/14 08:27:03;;;;;;;22.13;12.85;;;;;;;5.82;100.00;102039.34;7399268;19;20446;-67
2021/12/14 08:29:33;;;;;;;21.45;12.38;;;;;;;5.83;100.00;102043.72;7399833;19;20027;-68
2021/12/14 08:32:09;;;;;;;21.00;12.77;;;;;;;5.85;100.00;102042.00;7401134;19;20022;-68
2021/12/14 08:34:42;;;;;;;21.25;12.30;;;;;;;5.86;100.00;102048.97;7399131;19;20031;-67
2021/12/14 08:37:14;;;;;;;21.00;11.95;;;;;;;5.88;100.00;102049.88;7397127;19;20040;-67
2021/12/14 08:39:47;;;;;;;21.48;12.07;;;;;;;5.90;100.00;102068.13;7400898;19;20018;-67
2021/12/14 08:42:20;;;;;;;18.00;11.35;;;;;;;5.91;100.00;102062.94;7397327;19;20019;-67
2021/12/14 08:44:54;;;;;;;20.45;12.88;;;;;;;5.92;100.00;102058.63;7396861;19;20079;-67
2021/12/14 08:47:29;;;;;;;20.75;11.55;;;;;;;5.93;100.00;102056.06;7399560;19;20011;-68
2021/12/14 08:50:02;;;;;;;21.52;12.65;;;;;;;5.94;100.00;102057.81;7396117;19;20506;-66
2021/12/14 08:52:31;;;;;;;22.65;13.00;;;;;;;5.92;100.00;102051.69;7395818;19;20018;-67
2021/12/14 08:55:01;;;;;;;20.17;12.07;;;;;;;5.99;100.00;102063.13;7396205;19;20019;-67
2021/12/14 08:57:33;;;;;;;27.60;14.43;;;;;;;6.00;100.00;102059.69;7398670;19;20474;-67
2021/12/14 09:00:15;;;;;;;26.05;15.88;;;;;;;6.01;100.00;102064.03;7396872;19;20404;-67
2021/12/14 09:02:45;;;;;;;18.25;11.40;;;;;;;6.01;100.00;102069.25;7395908;19;20019;-67
2021/12/14 09:05:20;;;;;;;19.88;12.95;;;;;;;6.01;100.00;102072.72;7396157;19;20010;-67
2021/12/14 09:07:48;;;;;;;18.60;11.70;;;;;;;6.02;100.00;102077.09;7398198;19;20499;-67
2021/12/14 09:10:19;;;;;;;20.23;12.45;;;;;;;6.03;100.00;102075.38;7398394;19;20078;-67
2021/12/14 09:12:51;;;;;;;19.27;11.60;;;;;;;6.04;100.00;102069.31;7399439;19;20408;-67
2021/12/14 09:15:24;;;;;;;19.70;11.20;;;;;;;6.06;100.00;102069.34;7395930;19;20081;-67
2021/12/14 09:17:52;;;;;;;19.08;11.43;;;;;;;6.06;100.00;102067.59;7398090;19;20018;-67
2021/12/14 09:20:27;;;;;;;21.15;12.43;;;;;;;6.06;100.00;102056.31;7396657;19;20031;-67
2021/12/14 09:22:58;;;;;;;19.77;11.82;;;;;;;6.07;100.00;102061.56;7397670;19;20504;-69
2021/12/14 09:25:29;;;;;;;18.38;11.88;;;;;;;6.08;100.00;102059.81;7395906;19;20078;-67
2021/12/14 09:28:01;;;;;;;19.20;11.63;;;;;;;6.09;100.00;102051.16;7395615;19;20023;-67
2021/12/14 09:30:34;;;;;;;27.52;16.60;;;;;;;6.11;100.00;102052.06;7397378;19;20031;-67
2021/12/14 09:33:03;;;;;;;19.58;11.88;;;;;;;6.12;100.00;102053.81;7397886;19;20025;-68
2021/12/14 09:35:57;;;;;;;16.88;10.80;;;;;;;6.12;100.00;102057.28;7395793;19;20015;-66
2021/12/14 09:38:33;;;;;;;19.67;12.27;;;;;;;6.14;100.00;102060.81;7395815;19;20101;-68
2021/12/14 09:41:06;;;;;;;19.08;11.90;;;;;;;6.15;100.00;102053.88;7397201;19;20011;-68
2021/12/14 09:43:34;;;;;;;17.02;11.57;;;;;;;6.15;100.00;102053.88;7397208;19;20026;-68
2021/12/14 09:46:06;;;;;;;21.85;11.82;;;;;;;6.15;100.00;102043.44;7395505;19;20015;-68
2021/12/14 09:48:38;;;;;;;21.25;12.05;;;;;;;6.16;100.00;102037.38;7396734;19;20352;-68
2021/12/14 09:51:14;;;;;;;17.58;11.32;;;;;;;6.18;100.00;102030.47;7397375;19;20018;-68
2021/12/14 09:53:46;;;;;;;17.33;11.40;;;;;;;6.18;100.00;102020.06;7396986;19;20018;-67
2021/12/14 09:56:16;;;;;;;16.40;10.50;;;;;;;6.18;100.00;102022.66;7395609;19;20022;-68
2021/12/14 09:58:51;;;;;;;16.98;11.23;;;;;;;6.18;100.00;102007.03;7396809;19;20014;-67
2021/12/14 10:01:38;;;;;;;20.17;12.30;;;;;;;6.18;99.75;102013.09;7395271;19;20487;-68
2021/12/14 10:04:10;;;;;;;16.02;11.13;;;;;;;6.17;99.72;102021.78;7395867;19;20022;-68
2021/12/14 10:06:41;;;;;;;16.63;11.32;;;;;;;6.18;99.42;102017.44;7397177;19;20031;-68
2021/12/14 10:09:12;;;;;;;16.98;11.25;;;;;;;6.19;100.00;102016.56;7396771;19;20025;-68
2021/12/14 10:12:01;;;;;;;15.35;11.10;;;;;;;6.18;99.50;102020.94;7395006;19;20022;-68
2021/12/14 10:14:34;;;;;;;16.95;11.27;;;;;;;6.18;99.59;102023.53;7395500;19;20019;-68
2021/12/14 10:17:03;;;;;;;15.73;11.48;;;;;;;6.21;100.00;102032.25;7396027;19;20019;-68
2021/12/14 10:19:33;;;;;;;18.05;11.05;;;;;;;6.20;99.76;102020.94;7396364;19;20102;-68
2021/12/14 10:22:08;;;;;;;16.50;11.50;;;;;;;6.20;99.51;102018.34;7393909;19;20378;-68
2021/12/14 10:24:38;;;;;;;17.08;12.00;;;;;;;6.21;100.00;102009.66;7393660;19;20496;-68
2021/12/14 10:27:11;;;;;;;21.40;11.60;;;;;;;6.22;100.00;102003.63;7395858;19;20035;-67
2021/12/14 10:29:40;;;;;;;19.45;11.90;;;;;;;6.24;100.00;102008.84;7396090;19;20039;-67
2021/12/14 10:32:13;;;;;;;20.92;14.00;;;;;;;6.24;100.00;102007.09;7390938;19;20010;-67
2021/12/14 10:34:47;;;;;;;18.52;12.68;;;;;;;6.25;100.00;102006.25;7394321;19;20018;-67
2021/12/14 10:37:23;;;;;;;;;;;;;;;6.25;99.53;102001.03;7396669;19;20011;-66
2021/12/14 10:42:54;;;;;;;22.05;14.27;;;;;;;6.27;99.85;102001.97;7395569;19;20078;-65
2021/12/14 10:45:26;;;;;;;24.25;15.45;;;;;;;6.29;100.00;101996.75;7394150;19;20018;-65
2021/12/14 10:47:56;;;;;;;19.95;12.48;;;;;;;6.30;99.71;102011.56;7395881;19;20018;-64
2021/12/14 10:50:28;;;;;;;16.58;12.15;;;;;;;6.30;98.97;102011.56;7395009;19;20082;-65
2021/12/14 10:52:58;;;;;;;16.98;12.40;;;;;;;6.30;99.28;102015.03;7393723;19;20036;-65
2021/12/14 10:55:35;;;;;;;15.13;10.90;;;;;;;6.28;98.02;102014.16;7393341;19;20087;-65
2021/12/14 10:58:04;;;;;;;17.30;11.77;;;;;;;6.30;99.02;102016.78;7395614;19;20040;-65
2021/12/14 11:00:38;;;;;;;16.63;12.05;;;;;;;6.30;99.56;102009.81;7394748;19;20083;-64
2021/12/14 11:03:10;;;;;;;18.70;12.98;;;;;;;6.31;99.22;102014.19;7392988;19;20032;-64
2021/12/14 11:05:41;;;;;;;19.33;11.80;;;;;;;6.31;98.53;102010.72;7393062;19;20087;-65
2021/12/14 11:08:32;;;;;;;18.17;12.02;;;;;;;6.31;98.89;102006.34;7395417;19;20018;-66
2021/12/14 11:11:00;;;;;;;17.42;12.43;;;;;;;6.32;98.29;102002.91;7394557;19;20090;-67
2021/12/14 11:13:28;;;;;;;18.67;12.80;;;;;;;6.34;98.42;102010.75;7394422;19;20018;-67
2021/12/14 11:15:57;;;;;;;18.40;12.15;;;;;;;6.33;98.43;101991.63;7393399;19;20087;-67
2021/12/14 11:18:29;;;;;;;19.55;13.15;;;;;;;6.33;98.71;101983.81;7394056;19;20423;-69
2021/12/14 11:21:00;;;;;;;19.90;13.68;;;;;;;6.33;98.19;101989.03;7393075;19;20019;-66
2021/12/14 11:23:35;;;;;;;20.77;14.30;;;;;;;6.33;97.83;101989.03;7394290;19;20032;-67
2021/12/14 11:26:09;;;;;;;18.55;12.88;;;;;;;6.35;97.99;101989.03;7393926;19;20018;-65
2021/12/14 11:28:41;;;;;;;18.40;12.67;;;;;;;6.36;97.95;101993.41;7392407;19;20504;-68
2021/12/14 11:31:13;;;;;;;17.45;12.55;;;;;;;6.36;98.14;101999.50;7393825;19;20018;-68
2021/12/14 11:33:45;;;;;;;18.13;12.85;;;;;;;6.39;98.11;102000.41;7391806;19;20026;-66
2021/12/14 11:36:17;;;;;;;17.02;12.63;;;;;;;6.40;98.20;101996.94;7393262;19;20011;-67
2021/12/14 11:38:53;;;;;;;17.25;12.10;;;;;;;6.41;98.63;101996.06;7394199;19;20106;-66
2021/12/14 11:41:29;;;;;;;17.90;12.13;;;;;;;6.43;98.11;101983.94;7392553;19;20079;-69
2021/12/14 11:44:04;;;;;;;20.65;12.20;;;;;;;6.43;98.72;101984.84;7395202;19;20018;-68
2021/12/14 11:46:34;;;;;;;17.27;11.75;;;;;;;6.44;98.34;101990.91;7401297;19;20067;-68
2021/12/14 11:49:05;;;;;;;17.20;12.05;;;;;;;6.45;98.26;101990.94;7398637;19;20015;-69
2021/12/14 11:51:34;;;;;;;17.02;11.73;;;;;;;6.47;98.77;101993.56;7400941;19;20375;-67
2021/12/14 11:54:05;;;;;;;15.63;11.30;;;;;;;6.51;99.17;101998.00;7400318;19;20070;-67
2021/12/14 11:56:34;;;;;;;16.65;11.40;;;;;;;6.54;98.98;101997.16;7399886;19;20455;-69
2021/12/14 11:59:06;;;;;;;16.25;11.82;;;;;;;6.56;98.70;101998.94;7400905;19;20022;-68
2021/12/14 12:01:37;;;;;;;18.80;12.98;;;;;;;6.57;98.64;101995.47;7400653;19;20010;-67